createdAt,value
2018-09-13T00:00:56.339Z,1.30
2018-09-13T00:06:00.952Z,1.40
2018-09-13T00:11:04.639Z,1.80
2018-09-13T00:16:07.983Z,1.03
2018-09-13T00:21:11.329Z,1.13
2018-09-13T00:26:14.546Z,1.10
2018-09-13T00:31:17.735Z,1.20
2018-09-13T00:36:21.198Z,1.00
2018-09-13T00:41:24.456Z,1.10
2018-09-13T00:46:27.632Z,1.77
2018-09-13T00:51:31.053Z,0.90
2018-09-13T00:56:34.474Z,1.33
2018-09-13T01:01:37.680Z,1.43
2018-09-13T01:06:41.202Z,1.20
2018-09-13T01:11:44.528Z,1.00
2018-09-13T01:16:48.505Z,1.20
2018-09-13T01:21:51.708Z,1.00
2018-09-13T01:26:54.893Z,0.90
2018-09-13T01:31:58.527Z,1.00
2018-09-13T01:37:01.784Z,1.17
2018-09-13T01:42:05.512Z,0.97
2018-09-13T01:47:09.114Z,1.00
2018-09-13T01:52:12.441Z,1.20
2018-09-13T01:57:15.817Z,0.97
2018-09-13T02:02:19.581Z,1.00
2018-09-13T02:07:23.475Z,0.80
2018-09-13T02:12:26.729Z,0.90
2018-09-13T02:17:30.199Z,0.70
2018-09-13T02:22:33.430Z,0.90
2018-09-13T02:27:36.716Z,0.90
2018-09-13T02:32:40.269Z,1.23
2018-09-13T02:37:43.501Z,1.00
2018-09-13T02:42:46.751Z,0.90
2018-09-13T02:47:49.995Z,1.00
2018-09-13T02:52:53.255Z,0.77
2018-09-13T02:57:57.152Z,0.97
2018-09-13T03:03:00.377Z,1.00
2018-09-13T03:08:03.714Z,1.07
2018-09-13T03:13:07.180Z,1.13
2018-09-13T03:18:10.505Z,0.80
2018-09-13T03:23:13.754Z,0.90
2018-09-13T03:28:17.053Z,1.10
2018-09-13T03:33:20.237Z,0.90
2018-09-13T03:38:23.580Z,1.07
2018-09-13T03:43:26.935Z,0.87
2018-09-13T03:48:30.457Z,0.90
2018-09-13T03:53:33.647Z,1.63
2018-09-13T03:58:36.880Z,0.70
2018-09-13T04:03:40.113Z,0.90
2018-09-13T04:08:43.314Z,0.80
2018-09-13T04:13:46.606Z,0.70
2018-09-13T04:18:50.465Z,0.90
2018-09-13T04:23:53.740Z,0.77
2018-09-13T04:28:57.126Z,0.77
2018-09-13T04:34:01.015Z,0.60
2018-09-13T04:39:06.033Z,0.80
2018-09-13T04:44:09.342Z,0.80
2018-09-13T04:49:12.667Z,1.10
2018-09-13T04:54:16.693Z,1.00
2018-09-13T04:59:20.177Z,0.93
2018-09-13T05:04:23.657Z,0.80
2018-09-13T05:09:27.043Z,0.50
2018-09-13T05:14:30.419Z,0.80
2018-09-13T05:19:33.762Z,0.93
2018-09-13T05:24:37.075Z,0.80
2018-09-13T05:29:40.408Z,1.00
2018-09-13T05:34:43.710Z,1.20
2018-09-13T05:39:47.208Z,0.80
2018-09-13T05:44:51.001Z,0.90
2018-09-13T05:49:54.554Z,0.70
2018-09-13T05:54:57.869Z,0.70
2018-09-13T06:00:01.231Z,1.00
2018-09-13T06:05:04.505Z,0.70
2018-09-13T06:10:07.720Z,0.73
2018-09-13T06:15:11.038Z,0.90
2018-09-13T06:20:14.357Z,1.10
2018-09-13T06:25:17.924Z,1.00
2018-09-13T06:30:21.206Z,1.00
2018-09-13T06:35:24.468Z,1.00
2018-09-13T06:40:27.730Z,0.70
2018-09-13T06:45:30.969Z,1.07
2018-09-13T06:50:35.629Z,0.87
2018-09-13T06:55:39.377Z,1.00
2018-09-13T07:00:42.791Z,0.77
2018-09-13T07:05:46.605Z,0.90
2018-09-13T07:10:49.832Z,0.90
2018-09-13T07:15:53.708Z,1.00
2018-09-13T07:20:57.039Z,1.17
2018-09-13T07:26:00.777Z,1.00
2018-09-13T07:31:04.129Z,1.10
2018-09-13T07:36:08.170Z,1.47
2018-09-13T07:41:11.427Z,1.30
2018-09-13T07:46:14.955Z,0.87
2018-09-13T07:51:18.361Z,1.10
2018-09-13T07:56:21.732Z,1.10
2018-09-13T08:01:25.048Z,0.90
2018-09-13T08:06:28.319Z,0.90
2018-09-13T08:11:31.861Z,1.10
2018-09-13T08:16:35.415Z,0.93
2018-09-13T08:21:38.959Z,1.00
2018-09-13T08:26:42.651Z,1.20
2018-09-13T08:31:45.968Z,0.97
2018-09-13T08:36:50.499Z,1.47
2018-09-13T08:41:54.227Z,1.20
2018-09-13T08:46:57.618Z,0.90
2018-09-13T08:52:00.858Z,1.07
2018-09-13T08:57:04.535Z,1.30
2018-09-13T09:02:07.928Z,0.93
2018-09-13T09:07:11.817Z,0.80
2018-09-13T09:12:15.103Z,0.90
2018-09-13T09:17:18.429Z,1.30
2018-09-13T09:22:21.769Z,1.03
2018-09-13T09:27:26.158Z,1.10
2018-09-13T09:32:29.841Z,1.63
2018-09-13T09:37:33.324Z,1.37
2018-09-13T09:42:36.837Z,1.37
2018-09-13T09:47:40.398Z,1.50
2018-09-13T09:52:43.700Z,1.57
2018-09-13T09:57:47.472Z,1.30
2018-09-13T10:02:51.066Z,1.30
2018-09-13T10:07:55.124Z,1.50
2018-09-13T10:12:58.872Z,1.20
2018-09-13T10:18:07.516Z,1.20
2018-09-13T10:23:17.164Z,1.50
2018-09-13T10:28:25.974Z,1.47
2018-09-13T10:33:34.685Z,0.97
2018-09-13T10:38:43.352Z,1.73
2018-09-13T10:43:51.974Z,1.60
2018-09-13T10:49:00.879Z,1.33
2018-09-13T10:54:16.449Z,1.47
2018-09-13T10:59:19.812Z,1.53
2018-09-13T11:04:23.439Z,1.43
2018-09-13T11:09:26.801Z,1.53
2018-09-13T11:14:51.236Z,1.50
2018-09-13T11:19:55.280Z,1.90
2018-09-13T11:24:58.837Z,1.40
2018-09-13T11:30:02.262Z,1.83
2018-09-13T11:35:05.582Z,1.40
2018-09-13T11:40:09.701Z,2.17
2018-09-13T11:45:13.685Z,2.10
2018-09-13T11:50:17.577Z,2.10
2018-09-13T11:55:21.431Z,2.07
2018-09-13T12:00:24.994Z,2.40
2018-09-13T12:05:28.409Z,2.30
2018-09-13T12:10:31.854Z,2.60
2018-09-13T12:15:35.142Z,2.20
2018-09-13T12:20:38.742Z,2.23
2018-09-13T12:25:42.427Z,1.90
2018-09-13T12:30:45.906Z,2.10
2018-09-13T12:35:50.114Z,1.93
2018-09-13T12:40:53.455Z,1.90
2018-09-13T12:45:56.897Z,2.07
2018-09-13T12:51:00.693Z,1.37
2018-09-13T12:56:04.379Z,2.20
2018-09-13T13:01:07.675Z,1.67
2018-09-13T13:06:12.844Z,1.53
2018-09-13T13:11:16.269Z,1.57
2018-09-13T13:16:19.828Z,1.70
2018-09-13T13:21:23.919Z,1.57
2018-09-13T13:26:27.646Z,1.80
2018-09-13T13:31:31.632Z,1.73
2018-09-13T13:36:35.702Z,1.93
2018-09-13T13:41:39.486Z,1.67
2018-09-13T13:46:43.321Z,1.77
2018-09-13T13:51:46.835Z,1.73
2018-09-13T13:56:50.299Z,1.70
2018-09-13T14:01:53.593Z,1.80
2018-09-13T14:06:57.363Z,1.70
2018-09-13T14:12:00.642Z,1.77
2018-09-13T14:17:04.217Z,1.37
2018-09-13T14:22:07.627Z,1.70
2018-09-13T14:27:13.672Z,1.47
2018-09-13T14:32:17.088Z,1.67
2018-09-13T14:37:20.499Z,1.87
2018-09-13T14:42:24.057Z,1.63
2018-09-13T14:47:27.943Z,1.70
2018-09-13T14:52:31.719Z,1.80
2018-09-13T14:57:35.023Z,2.67
2018-09-13T15:02:38.922Z,1.57
2018-09-13T15:07:44.090Z,1.50
2018-09-13T15:12:47.983Z,1.37
2018-09-13T15:17:51.542Z,1.70
2018-09-13T15:22:54.878Z,1.43
2018-09-13T15:27:58.116Z,1.53
2018-09-13T15:33:01.446Z,1.27
2018-09-13T15:38:04.946Z,1.60
2018-09-13T15:43:08.491Z,1.83
2018-09-13T15:48:12.004Z,1.93
2018-09-13T15:53:15.590Z,1.67
2018-09-13T15:58:18.908Z,1.20
2018-09-13T16:03:22.262Z,1.70
2018-09-13T16:08:27.310Z,1.47
2018-09-13T16:13:30.686Z,1.43
2018-09-13T16:18:34.017Z,1.40
2018-09-13T16:23:38.274Z,1.53
2018-09-13T16:28:42.008Z,1.60
2018-09-13T16:33:45.759Z,1.57
2018-09-13T16:39:55.171Z,1.13
2018-09-13T16:44:59.217Z,1.60
2018-09-13T16:50:03.787Z,1.43
2018-09-13T16:55:07.681Z,1.27
2018-09-13T17:00:11.413Z,2.10
2018-09-13T17:05:14.889Z,1.77
2018-09-13T17:10:19.311Z,2.00
2018-09-13T17:15:22.951Z,2.03
2018-09-13T17:20:26.725Z,2.23
2018-09-13T17:25:30.151Z,2.97
2018-09-13T17:30:34.813Z,2.30
2018-09-13T17:35:38.144Z,2.33
2018-09-13T17:40:41.706Z,2.20
2018-09-13T17:45:46.567Z,3.07
2018-09-13T17:50:50.144Z,2.30
2018-09-13T17:55:53.710Z,2.40
2018-09-13T18:00:57.272Z,4.03
2018-09-13T18:06:00.694Z,5.30
2018-09-13T18:11:04.478Z,6.60
2018-09-13T18:16:09.092Z,8.10
2018-09-13T18:21:12.892Z,8.57
2018-09-13T18:26:17.246Z,6.47
2018-09-13T18:31:20.574Z,5.93
2018-09-13T18:36:24.630Z,5.30
2018-09-13T18:41:28.713Z,4.60
2018-09-13T18:46:32.948Z,4.33
2018-09-13T18:51:36.244Z,4.30
2018-09-13T18:56:40.557Z,3.97
2018-09-13T19:01:44.130Z,3.00
2018-09-13T19:06:49.079Z,3.17
2018-09-13T19:11:52.404Z,2.60
2018-09-13T19:16:56.221Z,2.63
2018-09-13T19:22:00.006Z,3.50
2018-09-13T19:27:03.682Z,3.40
2018-09-13T19:32:07.618Z,2.63
2018-09-13T19:37:12.726Z,2.70
2018-09-13T19:42:17.859Z,2.73
2018-09-13T19:47:21.483Z,2.20
2018-09-13T19:52:24.962Z,2.57
2018-09-13T19:57:28.299Z,2.70
2018-09-13T20:02:31.740Z,2.63
2018-09-13T20:07:35.373Z,2.50
2018-09-13T20:12:38.911Z,2.33
2018-09-13T20:17:42.395Z,2.00
2018-09-13T20:22:45.882Z,1.90
2018-09-13T20:27:49.477Z,2.87
2018-09-13T20:32:53.499Z,2.20
2018-09-13T20:37:56.858Z,2.23
2018-09-13T20:43:00.711Z,2.50
2018-09-13T20:48:04.284Z,1.97
2018-09-13T20:53:07.918Z,2.30
2018-09-13T20:58:11.151Z,2.67
2018-09-13T21:03:14.679Z,2.03
2018-09-13T21:08:18.717Z,2.10
2018-09-13T21:13:23.272Z,2.53
2018-09-13T21:18:26.798Z,2.20
2018-09-13T21:23:30.084Z,2.40
2018-09-13T21:28:33.382Z,2.30
2018-09-13T21:33:44.621Z,2.90
2018-09-13T21:38:48.661Z,2.80
2018-09-13T21:43:52.534Z,2.70
2018-09-13T21:48:59.342Z,2.50
2018-09-13T21:54:03.301Z,2.20
2018-09-13T21:59:07.193Z,2.57
2018-09-13T22:04:10.828Z,3.00
2018-09-13T22:09:16.561Z,2.53
2018-09-13T22:14:20.417Z,2.20
2018-09-13T22:19:23.653Z,2.50
2018-09-13T22:24:26.840Z,2.40
2018-09-13T22:29:30.087Z,2.30
2018-09-13T22:34:33.525Z,2.30
2018-09-13T22:39:36.755Z,2.13
2018-09-13T22:44:41.116Z,2.07
2018-09-13T22:49:44.383Z,2.10
2018-09-13T22:54:50.543Z,2.27
2018-09-13T22:59:54.210Z,1.87
2018-09-13T23:04:58.787Z,2.03
2018-09-13T23:10:01.985Z,1.37
2018-09-13T23:15:05.220Z,2.10
2018-09-13T23:20:08.398Z,1.63
2018-09-13T23:25:11.716Z,1.63
2018-09-13T23:30:14.926Z,2.00
2018-09-13T23:35:18.286Z,2.00
2018-09-13T23:40:21.754Z,2.23
2018-09-13T23:45:25.009Z,2.33
2018-09-13T23:50:28.201Z,2.13
2018-09-13T23:55:31.545Z,2.07
